createdAt,value
2018-11-03T00:00:08.102Z,100952.77
2018-11-03T00:02:35.763Z,100952.39
2018-11-03T00:05:03.333Z,100948.94
2018-11-03T00:07:30.820Z,100963.55
2018-11-03T00:09:58.485Z,100961.83
2018-11-03T00:12:26.011Z,100964.48
2018-11-03T00:14:53.577Z,100960.19
2018-11-03T00:17:21.339Z,100959.98
2018-11-03T00:19:49.085Z,100968.09
2018-11-03T00:22:16.609Z,100968.22
2018-11-03T00:24:44.205Z,100964.77
2018-11-03T00:27:11.669Z,100962.73
2018-11-03T00:29:39.177Z,100962.73
2018-11-03T00:32:06.750Z,100957.88
2018-11-03T00:34:34.265Z,100964.97
2018-11-03T00:37:01.750Z,100963.30
2018-11-03T00:39:29.407Z,100964.23
2018-11-03T00:41:56.956Z,100966.61
2018-11-03T00:44:24.470Z,100964.97
2018-11-03T00:46:51.982Z,100968.14
2018-11-03T00:49:19.486Z,100966.05
2018-11-03T00:51:46.990Z,100964.36
2018-11-03T00:54:14.621Z,100968.90
2018-11-03T00:56:42.186Z,100974.66
2018-11-03T00:59:09.632Z,100976.06
2018-11-03T01:01:37.212Z,100982.17
2018-11-03T01:04:05.095Z,100991.47
2018-11-03T01:06:32.534Z,100983.02
2018-11-03T01:09:00.300Z,100984.41
2018-11-03T01:11:27.806Z,100985.42
2018-11-03T01:13:55.306Z,100994.77
2018-11-03T01:16:23.071Z,100992.58
2018-11-03T01:18:50.837Z,100999.59
2018-11-03T01:21:18.325Z,101002.31
2018-11-03T01:23:46.126Z,101003.32
2018-11-03T01:26:13.768Z,101001.73
2018-11-03T01:28:41.271Z,100997.89
2018-11-03T01:31:08.893Z,101000.13
2018-11-03T01:33:36.405Z,101005.98
2018-11-03T01:36:04.058Z,101010.94
2018-11-03T01:38:31.583Z,101010.94
2018-11-03T01:40:59.327Z,101010.48
2018-11-03T01:43:26.779Z,101006.57
2018-11-03T01:45:54.498Z,101010.03
2018-11-03T01:48:22.199Z,101011.81
2018-11-03T01:50:49.675Z,101010.88
2018-11-03T01:53:17.350Z,101018.77
2018-11-03T01:55:45.152Z,101017.44
2018-11-03T01:58:12.612Z,101017.99
2018-11-03T02:00:40.288Z,101027.22
2018-11-03T02:03:08.066Z,101025.89
2018-11-03T02:05:35.563Z,101028.12
2018-11-03T02:08:03.261Z,101020.78
2018-11-03T02:10:30.994Z,101030.13
2018-11-03T02:12:58.500Z,101029.77
2018-11-03T02:15:26.214Z,101027.25
2018-11-03T02:17:53.961Z,101031.71
2018-11-03T02:20:21.451Z,101029.22
2018-11-03T02:22:49.239Z,101024.46
2018-11-03T02:25:17.123Z,101035.59
2018-11-03T02:27:44.573Z,101029.47
2018-11-03T02:30:12.746Z,101034.27
2018-11-03T02:32:40.629Z,101040.51
2018-11-03T02:35:09.278Z,101042.34
2018-11-03T02:37:37.340Z,101041.54
2018-11-03T02:40:06.123Z,101051.30
2018-11-03T02:42:33.574Z,101051.30
2018-11-03T02:45:01.205Z,101038.17
2018-11-03T02:47:28.979Z,101046.13
2018-11-03T02:49:56.529Z,101053.27
2018-11-03T02:52:24.267Z,101049.81
2018-11-03T02:54:51.965Z,101048.61
2018-11-03T02:57:19.403Z,101053.07
2018-11-03T02:59:47.208Z,101054.03
2018-11-03T03:02:15.017Z,101050.55
2018-11-03T03:04:42.442Z,101046.20
2018-11-03T03:07:10.169Z,101045.42
2018-11-03T03:09:37.793Z,101047.72
2018-11-03T03:12:05.415Z,101048.59
2018-11-03T03:14:33.151Z,101045.12
2018-11-03T03:17:00.875Z,101045.64
2018-11-03T03:19:28.295Z,101051.13
2018-11-03T03:21:55.970Z,101060.47
2018-11-03T03:24:23.745Z,101059.63
2018-11-03T03:26:51.193Z,101066.77
2018-11-03T03:29:18.989Z,101074.33
2018-11-03T03:31:46.481Z,101068.27
2018-11-03T03:34:14.036Z,101065.23
2018-11-03T03:36:41.800Z,101065.68
2018-11-03T03:39:10.411Z,101067.58
2018-11-03T03:41:38.190Z,101067.64
2018-11-03T03:44:05.888Z,101073.87
2018-11-03T03:46:33.602Z,101078.23
2018-11-03T03:49:01.062Z,101082.16
2018-11-03T03:51:28.772Z,101077.40
2018-11-03T03:53:56.546Z,101079.56
2018-11-03T03:56:24.049Z,101084.53
2018-11-03T03:58:51.707Z,101084.98
2018-11-03T04:01:19.503Z,101078.78
2018-11-03T04:03:46.965Z,101077.45
2018-11-03T04:06:14.712Z,101073.93
2018-11-03T04:08:42.484Z,101078.30
2018-11-03T04:11:09.980Z,101085.34
2018-11-03T04:13:37.746Z,101100.77
2018-11-03T04:16:05.507Z,101104.69
2018-11-03T04:18:32.998Z,101109.93
2018-11-03T04:21:00.748Z,101114.66
2018-11-03T04:23:28.354Z,101108.48
2018-11-03T04:25:55.785Z,101109.81
2018-11-03T04:28:23.698Z,101113.73
2018-11-03T04:30:51.438Z,101109.75
2018-11-03T04:33:18.958Z,101051.75
2018-11-03T04:35:46.728Z,101108.03
2018-11-03T04:38:14.460Z,101115.17
2018-11-03T04:40:41.934Z,101117.04
2018-11-03T04:43:09.464Z,101110.41
2018-11-03T04:45:37.242Z,101114.95
2018-11-03T04:48:04.747Z,101105.73
2018-11-03T04:50:32.550Z,101107.69
2018-11-03T04:53:00.359Z,101121.94
2018-11-03T04:55:27.797Z,101128.67
2018-11-03T04:57:55.424Z,101131.89
2018-11-03T05:00:23.184Z,101138.57
2018-11-03T05:02:50.661Z,101136.03
2018-11-03T05:05:18.392Z,101142.72
2018-11-03T05:07:46.039Z,101140.52
2018-11-03T05:10:13.515Z,101149.79
2018-11-03T05:12:41.243Z,101156.02
2018-11-03T05:15:08.804Z,101160.50
2018-11-03T05:17:36.268Z,101159.66
2018-11-03T05:20:04.098Z,101168.45
2018-11-03T05:22:31.727Z,101170.20
2018-11-03T05:24:59.194Z,101176.34
2018-11-03T05:27:26.984Z,101185.62
2018-11-03T05:29:54.615Z,101180.31
2018-11-03T05:32:22.082Z,101184.29
2018-11-03T05:34:49.870Z,101186.21
2018-11-03T05:37:17.522Z,101186.31
2018-11-03T05:39:45.018Z,101183.67
2018-11-03T05:42:12.752Z,101191.25
2018-11-03T05:44:40.459Z,101195.70
2018-11-03T05:47:07.949Z,101195.70
2018-11-03T05:49:35.649Z,101196.20
2018-11-03T05:52:03.282Z,101206.46
2018-11-03T05:54:30.975Z,101206.56
2018-11-03T05:56:58.598Z,101211.44
2018-11-03T05:59:26.220Z,101213.64
2018-11-03T06:01:53.707Z,101205.69
2018-11-03T06:04:21.278Z,101217.19
2018-11-03T06:06:48.984Z,101219.38
2018-11-03T06:09:16.416Z,101216.34
2018-11-03T06:11:44.198Z,101222.97
2018-11-03T06:14:11.874Z,101230.03
2018-11-03T06:16:39.357Z,101228.31
2018-11-03T06:19:07.148Z,101227.49
2018-11-03T06:21:34.932Z,101240.34
2018-11-03T06:24:02.387Z,101232.50
2018-11-03T06:26:30.127Z,101244.92
2018-11-03T06:28:57.659Z,101252.97
2018-11-03T06:31:25.178Z,101261.95
2018-11-03T06:33:52.954Z,101256.32
2018-11-03T06:36:20.469Z,101212.38
2018-11-03T06:38:48.017Z,101267.50
2018-11-03T06:41:15.787Z,101274.51
2018-11-03T06:43:43.349Z,101285.10
2018-11-03T06:46:10.803Z,101278.53
2018-11-03T06:48:38.476Z,101284.80
2018-11-03T06:51:06.006Z,101291.88
2018-11-03T06:53:33.499Z,101296.34
2018-11-03T06:56:01.210Z,101297.72
2018-11-03T06:58:28.812Z,101306.16
2018-11-03T07:00:56.292Z,101310.17
2018-11-03T07:03:24.026Z,101318.16
2018-11-03T07:05:51.543Z,101328.75
2018-11-03T07:08:19.008Z,101334.05
2018-11-03T07:10:46.846Z,101330.55
2018-11-03T07:13:14.432Z,101329.23
2018-11-03T07:15:41.748Z,101335.47
2018-11-03T07:18:09.504Z,101327.17
2018-11-03T07:20:37.044Z,101332.08
2018-11-03T07:23:04.764Z,101330.70
2018-11-03T07:25:32.364Z,101336.00
2018-11-03T07:28:00.063Z,101343.84
2018-11-03T07:30:27.541Z,101342.03
2018-11-03T07:32:55.156Z,101354.05
2018-11-03T07:35:22.690Z,101357.97
2018-11-03T07:37:50.208Z,101354.88
2018-11-03T07:40:18.117Z,101358.41
2018-11-03T07:42:45.970Z,101361.00
2018-11-03T07:45:13.341Z,101367.62
2018-11-03T07:47:41.142Z,101372.39
2018-11-03T07:50:10.317Z,101377.28
2018-11-03T07:52:37.758Z,101387.00
2018-11-03T07:55:06.586Z,101393.17
2018-11-03T07:57:34.380Z,101397.54
2018-11-03T08:00:01.895Z,101388.70
2018-11-03T08:02:29.645Z,101391.75
2018-11-03T08:04:57.405Z,101402.39
2018-11-03T08:07:24.874Z,101402.83
2018-11-03T08:09:52.683Z,101413.02
2018-11-03T08:12:20.356Z,101416.12
2018-11-03T08:14:47.792Z,101417.00
2018-11-03T08:17:15.508Z,101419.25
2018-11-03T08:19:43.156Z,101427.59
2018-11-03T08:22:10.661Z,101428.91
2018-11-03T08:24:38.316Z,101430.59
2018-11-03T08:27:05.992Z,101427.49
2018-11-03T08:29:33.506Z,101423.97
2018-11-03T08:32:01.156Z,101435.83
2018-11-03T08:34:28.749Z,101432.70
2018-11-03T08:36:56.382Z,101438.42
2018-11-03T08:39:24.225Z,101435.78
2018-11-03T08:41:51.897Z,101440.15
2018-11-03T08:44:19.371Z,101431.80
2018-11-03T08:46:46.899Z,101436.71
2018-11-03T08:49:14.675Z,101442.98
2018-11-03T08:51:42.112Z,101437.30
2018-11-03T08:54:09.820Z,101438.58
2018-11-03T08:56:37.502Z,101438.58
2018-11-03T08:59:05.562Z,101435.44
2018-11-03T09:01:33.310Z,101439.81
2018-11-03T09:04:00.994Z,101448.23
2018-11-03T09:06:28.447Z,101444.75
2018-11-03T09:08:56.093Z,101449.59
2018-11-03T09:11:23.656Z,101453.92
2018-11-03T09:13:51.118Z,101458.77
2018-11-03T09:16:18.916Z,101460.93
2018-11-03T09:18:46.659Z,101463.09
2018-11-03T09:21:14.148Z,101455.64
2018-11-03T09:23:41.905Z,101464.47
2018-11-03T09:26:09.623Z,101467.12
2018-11-03T09:28:37.135Z,101474.17
2018-11-03T09:31:04.949Z,101486.48
2018-11-03T09:33:32.609Z,101480.79
2018-11-03T09:36:00.085Z,101484.23
2018-11-03T09:38:27.814Z,101492.18
2018-11-03T09:40:55.327Z,101510.63
2018-11-03T09:43:22.850Z,101523.42
2018-11-03T09:45:50.522Z,101531.32
2018-11-03T09:48:18.240Z,101547.22
2018-11-03T09:50:45.831Z,101538.83
2018-11-03T09:53:13.431Z,101549.81
2018-11-03T09:55:41.169Z,101551.09
2018-11-03T09:58:08.613Z,101553.75
2018-11-03T10:00:36.270Z,101555.47
2018-11-03T10:03:03.830Z,101552.37
2018-11-03T10:05:31.250Z,101561.64
2018-11-03T10:07:58.974Z,101563.85
2018-11-03T10:10:26.765Z,101561.16
2018-11-03T10:12:54.358Z,101561.07
2018-11-03T10:15:22.085Z,101561.91
2018-11-03T10:17:49.843Z,101558.38
2018-11-03T10:20:17.318Z,101563.67
2018-11-03T10:22:45.140Z,101561.83
2018-11-03T10:25:15.212Z,101568.41
2018-11-03T10:27:43.389Z,101564.43
2018-11-03T10:30:12.489Z,101567.91
2018-11-03T10:32:40.395Z,101567.88
2018-11-03T10:35:08.518Z,101575.73
2018-11-03T10:37:36.372Z,101571.27
2018-11-03T10:40:04.598Z,101580.89
2018-11-03T10:42:32.062Z,101588.84
2018-11-03T10:44:59.817Z,101583.09
2018-11-03T10:47:27.484Z,101584.33
2018-11-03T10:49:54.997Z,101590.47
2018-11-03T10:52:22.654Z,101587.30
2018-11-03T10:54:50.322Z,101591.70
2018-11-03T10:57:17.802Z,101582.87
2018-11-03T10:59:45.586Z,101583.70
2018-11-03T11:02:18.632Z,101581.45
2018-11-03T11:04:51.982Z,101576.16
2018-11-03T11:07:25.125Z,101584.46
2018-11-03T11:09:58.249Z,101588.88
2018-11-03T11:12:31.275Z,101597.67
2018-11-03T11:14:59.219Z,101606.45
2018-11-03T11:17:26.722Z,101605.08
2018-11-03T11:19:54.184Z,101617.80
2018-11-03T11:22:22.233Z,101615.50
2018-11-03T11:24:49.797Z,101618.55
2018-11-03T11:27:17.207Z,101624.23
2018-11-03T11:29:45.246Z,101633.92
2018-11-03T11:32:12.719Z,101635.24
2018-11-03T11:34:40.145Z,101643.15
2018-11-03T11:37:08.014Z,101642.30
2018-11-03T11:39:35.548Z,101647.56
2018-11-03T11:42:03.013Z,101651.48
2018-11-03T11:44:30.959Z,101652.77
2018-11-03T11:46:58.418Z,101651.84
2018-11-03T11:49:25.907Z,101658.78
2018-11-03T11:51:54.768Z,101653.92
2018-11-03T11:54:22.270Z,101653.87
2018-11-03T11:56:49.750Z,101647.64
2018-11-03T11:59:17.571Z,101650.25
2018-11-03T12:01:45.033Z,101650.25
2018-11-03T12:04:12.534Z,101652.45
2018-11-03T12:06:40.407Z,101653.30
2018-11-03T12:09:08.488Z,101664.83
2018-11-03T12:11:35.993Z,101660.80
2018-11-03T12:14:03.945Z,101663.91
2018-11-03T12:16:31.535Z,101610.87
2018-11-03T12:18:59.046Z,101661.25
2018-11-03T12:21:26.880Z,101666.98
2018-11-03T12:23:54.353Z,101664.34
2018-11-03T12:26:21.811Z,101669.20
2018-11-03T12:28:49.763Z,101673.23
2018-11-03T12:31:17.287Z,101675.17
2018-11-03T12:33:50.521Z,101682.73
2018-11-03T12:36:18.192Z,101690.28
2018-11-03T12:38:45.683Z,101689.88
2018-11-03T12:41:13.311Z,101699.66
2018-11-03T12:43:40.895Z,101696.08
2018-11-03T12:46:08.446Z,101704.46
2018-11-03T12:48:36.045Z,101711.13
2018-11-03T12:51:03.957Z,101680.52
2018-11-03T12:53:31.499Z,101723.02
2018-11-03T12:55:59.061Z,101727.84
2018-11-03T12:58:26.841Z,101737.16
2018-11-03T13:00:54.393Z,101730.53
2018-11-03T13:03:22.041Z,101736.27
2018-11-03T13:05:49.513Z,101729.13
2018-11-03T13:08:16.957Z,101731.28
2018-11-03T13:10:44.461Z,101731.73
2018-11-03T13:13:12.018Z,101739.28
2018-11-03T13:15:39.609Z,101734.91
2018-11-03T13:18:07.149Z,101735.27
2018-11-03T13:20:34.873Z,101740.97
2018-11-03T13:23:02.293Z,101746.27
2018-11-03T13:25:29.832Z,101751.13
2018-11-03T13:27:57.392Z,101756.96
2018-11-03T13:30:24.852Z,101764.47
2018-11-03T13:32:52.432Z,101768.94
2018-11-03T13:35:20.095Z,101769.86
2018-11-03T13:37:47.560Z,101770.30
2018-11-03T13:40:15.126Z,101764.59
2018-11-03T13:42:43.423Z,101773.88
2018-11-03T13:45:11.120Z,101767.69
2018-11-03T13:47:39.127Z,101769.53
2018-11-03T13:50:11.921Z,101772.72
2018-11-03T13:52:40.100Z,101776.38
2018-11-03T13:55:08.078Z,101752.78
2018-11-03T13:57:35.807Z,101788.06
2018-11-03T14:00:03.919Z,101785.90
2018-11-03T14:02:31.374Z,101793.45
2018-11-03T14:06:02.112Z,101790.88
2018-11-03T14:08:29.706Z,101791.44
2018-11-03T14:10:57.231Z,101795.05
2018-11-03T14:13:25.028Z,101789.79
2018-11-03T14:15:52.476Z,101799.10
2018-11-03T14:18:19.985Z,101793.84
2018-11-03T14:20:47.689Z,101793.92
2018-11-03T14:23:15.151Z,101786.90
2018-11-03T14:25:42.629Z,101797.09
2018-11-03T14:28:10.417Z,101791.84
2018-11-03T14:30:37.861Z,101798.02
2018-11-03T14:33:05.707Z,101798.09
2018-11-03T14:35:33.634Z,101804.75
2018-11-03T14:38:01.144Z,101817.19
2018-11-03T14:40:28.620Z,101815.50
2018-11-03T14:42:56.616Z,101816.42
2018-11-03T14:45:24.306Z,101817.82
2018-11-03T14:47:51.712Z,101824.95
2018-11-03T14:50:19.649Z,101824.52
2018-11-03T14:52:47.149Z,101832.50
2018-11-03T14:55:14.582Z,101829.03
2018-11-03T14:57:42.395Z,101832.56
2018-11-03T15:00:13.410Z,101839.22
2018-11-03T15:02:41.053Z,101837.49
2018-11-03T15:05:09.465Z,101842.86
2018-11-03T15:07:37.102Z,101842.53
2018-11-03T15:10:05.631Z,101845.69
2018-11-03T15:12:33.491Z,101851.45
2018-11-03T15:15:01.643Z,101851.13
2018-11-03T15:17:29.033Z,101847.25
2018-11-03T15:19:56.690Z,101851.30
2018-11-03T15:22:24.205Z,101850.52
2018-11-03T15:24:51.663Z,101852.31
2018-11-03T15:27:19.410Z,101854.55
2018-11-03T15:29:46.878Z,101853.30
2018-11-03T15:32:14.359Z,101848.48
2018-11-03T15:34:42.169Z,101841.89
2018-11-03T15:37:09.626Z,101854.24
2018-11-03T15:39:37.125Z,101854.75
2018-11-03T15:42:05.359Z,101858.28
2018-11-03T15:44:32.952Z,101867.54
2018-11-03T15:47:00.457Z,101870.69
2018-11-03T15:49:28.274Z,101871.58
2018-11-03T15:51:55.744Z,101879.55
2018-11-03T15:54:23.328Z,101885.38
2018-11-03T15:56:51.206Z,101885.03
2018-11-03T15:59:18.653Z,101890.85
2018-11-03T16:01:46.128Z,101890.03
2018-11-03T16:04:13.731Z,101883.89
2018-11-03T16:06:41.243Z,101884.33
2018-11-03T16:09:09.999Z,101881.72
2018-11-03T16:11:37.989Z,101886.16
2018-11-03T16:14:05.581Z,101880.89
2018-11-03T16:16:33.074Z,101885.72
2018-11-03T16:19:01.008Z,101874.72
2018-11-03T16:21:28.761Z,101882.66
2018-11-03T16:23:56.209Z,101890.56
2018-11-03T16:26:24.037Z,101885.72
2018-11-03T16:28:51.548Z,101884.86
2018-11-03T16:31:19.006Z,101887.54
2018-11-03T16:33:46.718Z,101895.06
2018-11-03T16:36:14.211Z,101885.39
2018-11-03T16:38:41.657Z,101887.19
2018-11-03T16:41:09.497Z,101888.95
2018-11-03T16:43:36.971Z,101895.15
2018-11-03T16:46:04.697Z,101884.63
2018-11-03T16:48:32.347Z,101890.39
2018-11-03T16:50:59.830Z,101895.27
2018-11-03T16:53:27.382Z,101897.53
2018-11-03T16:55:55.206Z,101894.48
2018-11-03T16:58:22.680Z,101897.13
2018-11-03T17:00:50.139Z,101908.55
2018-11-03T17:03:17.867Z,101905.03
2018-11-03T17:05:45.320Z,101914.28
2018-11-03T17:08:12.739Z,101910.38
2018-11-03T17:10:40.536Z,101914.37
2018-11-03T17:13:08.200Z,101914.42
2018-11-03T17:15:35.566Z,101923.75
2018-11-03T17:18:03.285Z,101927.83
2018-11-03T17:20:30.737Z,101929.29
2018-11-03T17:22:58.281Z,101932.03
2018-11-03T17:25:26.062Z,101927.73
2018-11-03T17:27:53.575Z,101931.25
2018-11-03T17:30:21.078Z,101928.25
2018-11-03T17:32:48.745Z,101928.69
2018-11-03T17:35:16.278Z,101936.20
2018-11-03T17:37:43.971Z,101944.59
2018-11-03T17:40:11.872Z,101955.71
2018-11-03T17:42:39.381Z,101951.80
2018-11-03T17:45:07.954Z,101953.09
2018-11-03T17:47:35.565Z,101949.11
2018-11-03T17:50:03.240Z,101951.25
2018-11-03T17:52:30.685Z,101953.89
2018-11-03T17:54:58.471Z,101952.19
2018-11-03T17:57:25.896Z,101959.67
2018-11-03T17:59:53.404Z,101965.03
2018-11-03T18:02:21.199Z,101967.72
2018-11-03T18:04:48.647Z,101977.42
2018-11-03T18:07:16.119Z,101973.95
2018-11-03T18:09:43.823Z,101972.65
2018-11-03T18:12:11.249Z,101960.81
2018-11-03T18:14:38.713Z,101961.30
2018-11-03T18:17:06.469Z,101964.89
2018-11-03T18:19:33.947Z,101959.66
2018-11-03T18:22:01.462Z,101957.10
2018-11-03T18:24:29.237Z,101970.78
2018-11-03T18:26:56.828Z,101976.55
2018-11-03T18:29:24.284Z,101976.99
2018-11-03T18:31:51.911Z,101979.20
2018-11-03T18:34:19.362Z,101972.14
2018-11-03T18:36:46.836Z,101977.88
2018-11-03T18:39:14.799Z,101984.50
2018-11-03T18:41:42.363Z,101979.70
2018-11-03T18:44:09.797Z,101976.66
2018-11-03T18:46:37.644Z,101975.36
2018-11-03T18:49:05.192Z,101984.13
2018-11-03T18:51:32.689Z,101981.50
2018-11-03T18:54:00.438Z,101980.59
2018-11-03T18:56:27.967Z,101982.36
2018-11-03T18:58:55.439Z,101982.37
2018-11-03T19:01:23.232Z,101973.59
2018-11-03T19:03:50.737Z,101973.64
2018-11-03T19:06:18.204Z,101967.98
2018-11-03T19:08:45.921Z,101977.67
2018-11-03T19:11:13.345Z,101973.76
2018-11-03T19:13:40.893Z,101971.12
2018-11-03T19:16:08.688Z,101965.45
2018-11-03T19:18:36.111Z,101972.91
2018-11-03T19:21:03.621Z,101967.24
2018-11-03T19:23:31.417Z,101965.08
2018-11-03T19:25:58.938Z,101978.78
2018-11-03T19:28:26.407Z,101988.89
2018-11-03T19:30:54.179Z,101987.61
2018-11-03T19:33:21.678Z,101984.11
2018-11-03T19:35:49.142Z,101977.95
2018-11-03T19:38:17.184Z,101972.68
2018-11-03T19:40:44.702Z,101975.30
2018-11-03T19:43:12.160Z,101972.66
2018-11-03T19:45:40.069Z,101966.97
2018-11-03T19:48:07.570Z,101959.06
2018-11-03T19:50:35.063Z,101961.71
2018-11-03T19:53:02.929Z,101966.17
2018-11-03T19:55:30.400Z,101965.74
2018-11-03T19:57:57.826Z,101970.20
2018-11-03T20:00:25.763Z,101963.63
2018-11-03T20:02:53.252Z,101974.66
2018-11-03T20:05:20.684Z,101989.18
2018-11-03T20:07:48.596Z,101997.11
2018-11-03T20:10:16.213Z,101992.75
2018-11-03T20:12:43.561Z,101983.97
2018-11-03T20:15:12.251Z,101991.89
2018-11-03T20:17:39.887Z,101984.41
2018-11-03T20:20:08.892Z,101986.61
2018-11-03T20:22:36.524Z,101996.77
2018-11-03T20:25:04.882Z,101999.41
2018-11-03T20:27:32.332Z,101996.36
2018-11-03T20:30:00.234Z,101996.39
2018-11-03T20:32:27.686Z,101993.39
2018-11-03T20:34:55.156Z,101995.19
2018-11-03T20:37:23.090Z,101991.27
2018-11-03T20:39:50.562Z,101989.55
2018-11-03T20:42:18.043Z,101989.58
2018-11-03T20:44:45.837Z,101993.98
2018-11-03T20:47:13.341Z,102004.12
2018-11-03T20:49:40.793Z,102006.80
2018-11-03T20:52:08.408Z,102013.39
2018-11-03T20:54:35.876Z,102014.75
2018-11-03T20:57:04.182Z,102015.66
2018-11-03T20:59:31.995Z,102007.37
2018-11-03T21:01:59.526Z,102014.81
2018-11-03T21:04:26.990Z,102013.50
2018-11-03T21:06:54.659Z,102008.23
2018-11-03T21:09:22.150Z,102004.28
2018-11-03T21:11:49.614Z,102006.92
2018-11-03T21:14:17.580Z,102006.92
2018-11-03T21:16:45.022Z,102006.92
2018-11-03T21:19:12.479Z,101999.02
2018-11-03T21:21:40.213Z,101997.72
2018-11-03T21:24:07.778Z,102001.69
2018-11-03T21:26:35.227Z,101998.21
2018-11-03T21:29:03.171Z,101998.66
2018-11-03T21:31:30.665Z,101999.97
2018-11-03T21:33:58.097Z,102000.42
2018-11-03T21:36:25.836Z,102001.33
2018-11-03T21:38:53.412Z,102011.88
2018-11-03T21:41:20.811Z,102009.25
2018-11-03T21:43:48.561Z,102003.98
2018-11-03T21:46:16.072Z,102011.47
2018-11-03T21:48:43.549Z,102010.14
2018-11-03T21:51:11.406Z,102008.42
2018-11-03T21:53:38.945Z,102007.12
2018-11-03T21:56:06.669Z,101997.52
2018-11-03T21:58:34.438Z,101989.66
2018-11-03T22:01:01.906Z,101994.47
2018-11-03T22:03:29.440Z,102008.53
2018-11-03T22:05:57.412Z,101990.98
2018-11-03T22:08:24.872Z,101986.14
2018-11-03T22:10:52.339Z,101990.52
2018-11-03T22:13:20.310Z,101979.98
2018-11-03T22:15:47.832Z,101984.84
2018-11-03T22:18:15.352Z,101989.70
2018-11-03T22:20:43.221Z,101991.45
2018-11-03T22:23:10.703Z,101978.31
2018-11-03T22:25:38.156Z,101980.52
2018-11-03T22:28:06.039Z,101974.39
2018-11-03T22:30:33.525Z,101973.52
2018-11-03T22:33:00.983Z,101973.11
2018-11-03T22:35:28.794Z,101970.03
2018-11-03T22:37:56.206Z,101964.79
2018-11-03T22:40:23.724Z,101963.48
2018-11-03T22:42:51.587Z,101962.64
2018-11-03T22:45:19.100Z,101965.30
2018-11-03T22:47:46.609Z,101966.63
2018-11-03T22:50:14.268Z,101964.00
2018-11-03T22:52:41.748Z,101968.81
2018-11-03T22:55:09.274Z,101968.81
2018-11-03T22:57:37.059Z,101975.86
2018-11-03T23:00:05.859Z,101967.98
2018-11-03T23:02:33.334Z,101971.48
2018-11-03T23:05:00.997Z,101971.53
2018-11-03T23:07:28.474Z,101962.34
2018-11-03T23:09:55.904Z,101960.62
2018-11-03T23:12:23.862Z,101965.42
2018-11-03T23:14:51.390Z,101967.63
2018-11-03T23:17:18.871Z,101966.34
2018-11-03T23:19:46.581Z,101965.91
2018-11-03T23:22:14.208Z,101959.34
2018-11-03T23:24:41.556Z,101954.09
2018-11-03T23:27:09.490Z,101944.41
2018-11-03T23:29:36.972Z,101948.82
2018-11-03T23:32:04.602Z,101944.88
2018-11-03T23:34:32.448Z,101947.52
2018-11-03T23:36:59.867Z,101944.91
2018-11-03T23:39:27.334Z,101941.44
2018-11-03T23:41:55.150Z,101943.62
2018-11-03T23:44:23.245Z,101936.64
2018-11-03T23:46:50.774Z,101942.78
2018-11-03T23:49:18.627Z,101943.22
2018-11-03T23:51:46.114Z,101944.12
2018-11-03T23:54:13.548Z,101951.55
2018-11-03T23:56:41.343Z,101948.92
2018-11-03T23:59:08.858Z,101940.61
